sensor_id;sensor_type;location;lat;lon;timestamp;pressure;altitude;pressure_sealevel;temperature;humidity
62800;BME280;48842;51.046;13.796;2023-04-22T00:01:48;100190.22;;;13.39;nan
62800;BME280;48842;51.046;13.796;2023-04-22T00:04:13;100190.28;;;13.36;nan
62800;BME280;48842;51.046;13.796;2023-04-22T00:06:38;100182.38;;;13.33;nan
62800;BME280;48842;51.046;13.796;2023-04-22T00:09:04;100183.28;;;13.29;nan
62800;BME280;48842;51.046;13.796;2023-04-22T00:11:29;100185.97;;;13.26;nan
62800;BME280;48842;51.046;13.796;2023-04-22T00:13:55;100185.97;;;13.21;nan
62800;BME280;48842;51.046;13.796;2023-04-22T00:16:20;100186.91;;;13.17;nan
62800;BME280;48842;51.046;13.796;2023-04-22T00:18:45;100181.69;;;13.14;nan
62800;BME280;48842;51.046;13.796;2023-04-22T00:21:10;100178.19;;;13.10;nan
62800;BME280;48842;51.046;13.796;2023-04-22T00:23:36;100178.22;;;13.09;nan
62800;BME280;48842;51.046;13.796;2023-04-22T00:26:01;100172.13;;;13.05;nan
62800;BME280;48842;51.046;13.796;2023-04-22T00:28:27;100175.66;;;13.03;nan
62800;BME280;48842;51.046;13.796;2023-04-22T00:30:52;100173.00;;;13.04;nan
62800;BME280;48842;51.046;13.796;2023-04-22T00:33:17;100166.88;;;13.05;nan
62800;BME280;48842;51.046;13.796;2023-04-22T00:35:45;100170.38;;;13.04;nan
62800;BME280;48842;51.046;13.796;2023-04-22T00:38:10;100175.63;;;13.06;nan
62800;BME280;48842;51.046;13.796;2023-04-22T00:40:35;100175.63;;;13.06;nan
62800;BME280;48842;51.046;13.796;2023-04-22T00:43:01;100171.22;;;13.05;nan
62800;BME280;48842;51.046;13.796;2023-04-22T00:45:26;100171.25;;;13.02;nan
62800;BME280;48842;51.046;13.796;2023-04-22T00:47:52;100164.25;;;12.99;nan
62800;BME280;48842;51.046;13.796;2023-04-22T00:50:18;100168.66;;;12.99;nan
62800;BME280;48842;51.046;13.796;2023-04-22T00:52:43;100160.81;;;12.94;nan
62800;BME280;48842;51.046;13.796;2023-04-22T00:55:09;100159.09;;;12.90;nan
62800;BME280;48842;51.046;13.796;2023-04-22T00:57:35;100160.00;;;12.86;nan
62800;BME280;48842;51.046;13.796;2023-04-22T01:00:01;100168.78;;;12.82;nan
62800;BME280;48842;51.046;13.796;2023-04-22T01:02:27;100162.72;;;12.75;nan
62800;BME280;48842;51.046;13.796;2023-04-22T01:04:53;100167.13;;;12.71;nan
62800;BME280;48842;51.046;13.796;2023-04-22T01:07:18;100171.53;;;12.68;nan
62800;BME280;48842;51.046;13.796;2023-04-22T01:09:44;100160.16;;;12.64;nan
62800;BME280;48842;51.046;13.796;2023-04-22T01:12:10;100173.31;;;12.61;nan
62800;BME280;48842;51.046;13.796;2023-04-22T01:14:35;100164.63;;;12.56;nan
62800;BME280;48842;51.046;13.796;2023-04-22T01:17:00;100173.41;;;12.52;nan
62800;BME280;48842;51.046;13.796;2023-04-22T01:19:27;100167.28;;;12.50;nan
62800;BME280;48842;51.046;13.796;2023-04-22T01:21:53;100168.19;;;12.47;nan
62800;BME280;48842;51.046;13.796;2023-04-22T01:24:19;100169.06;;;12.45;nan
62800;BME280;48842;51.046;13.796;2023-04-22T01:26:46;100163.84;;;12.42;nan
62800;BME280;48842;51.046;13.796;2023-04-22T01:29:12;100169.13;;;12.38;nan
62800;BME280;48842;51.046;13.796;2023-04-22T01:31:38;100159.50;;;12.34;nan
62800;BME280;48842;51.046;13.796;2023-04-22T01:34:04;100167.41;;;12.31;nan
62800;BME280;48842;51.046;13.796;2023-04-22T01:36:29;100160.44;;;12.27;nan
62800;BME280;48842;51.046;13.796;2023-04-22T01:38:57;100157.81;;;12.26;nan
62800;BME280;48842;51.046;13.796;2023-04-22T01:41:22;100153.44;;;12.23;nan
62800;BME280;48842;51.046;13.796;2023-04-22T01:43:48;100147.31;;;12.22;nan
62800;BME280;48842;51.046;13.796;2023-04-22T01:46:16;100156.94;;;12.20;nan
62800;BME280;48842;51.046;13.796;2023-04-22T01:48:42;100158.69;;;12.21;nan
62800;BME280;48842;51.046;13.796;2023-04-22T01:51:07;100146.44;;;12.20;nan
62800;BME280;48842;51.046;13.796;2023-04-22T01:53:32;100147.34;;;12.19;nan
62800;BME280;48842;51.046;13.796;2023-04-22T01:55:58;100143.88;;;12.14;nan
62800;BME280;48842;51.046;13.796;2023-04-22T01:58:27;100139.50;;;12.12;nan
62800;BME280;48842;51.046;13.796;2023-04-22T02:00:53;100142.13;;;12.09;nan
62800;BME280;48842;51.046;13.796;2023-04-22T02:03:18;100147.41;;;12.05;nan
62800;BME280;48842;51.046;13.796;2023-04-22T02:05:43;100139.56;;;12.02;nan
62800;BME280;48842;51.046;13.796;2023-04-22T02:08:08;100139.56;;;11.99;nan
62800;BME280;48842;51.046;13.796;2023-04-22T02:10:34;100134.34;;;11.96;nan
62800;BME280;48842;51.046;13.796;2023-04-22T02:12:59;100133.47;;;11.94;nan
62800;BME280;48842;51.046;13.796;2023-04-22T02:15:24;100138.69;;;11.91;nan
62800;BME280;48842;51.046;13.796;2023-04-22T02:17:49;100132.59;;;11.89;nan
62800;BME280;48842;51.046;13.796;2023-04-22T02:20:15;100135.25;;;11.86;nan
62800;BME280;48842;51.046;13.796;2023-04-22T02:22:41;100135.25;;;11.83;nan
62800;BME280;48842;51.046;13.796;2023-04-22T02:25:08;100130.88;;;11.80;nan
62800;BME280;48842;51.046;13.796;2023-04-22T02:27:33;100135.25;;;11.77;nan
62800;BME280;48842;51.046;13.796;2023-04-22T02:29:58;100129.16;;;11.75;nan
62800;BME280;48842;51.046;13.796;2023-04-22T02:32:23;100130.94;;;11.73;nan
62800;BME280;48842;51.046;13.796;2023-04-22T02:34:55;100120.41;;;11.69;nan
62800;BME280;48842;51.046;13.796;2023-04-22T02:37:20;100122.19;;;11.67;nan
62800;BME280;48842;51.046;13.796;2023-04-22T02:39:47;100117.81;;;11.66;nan
62800;BME280;48842;51.046;13.796;2023-04-22T02:42:12;100123.97;;;11.65;nan
62800;BME280;48842;51.046;13.796;2023-04-22T02:44:37;100116.97;;;11.64;nan
62800;BME280;48842;51.046;13.796;2023-04-22T02:47:03;100116.97;;;11.64;nan
62800;BME280;48842;51.046;13.796;2023-04-22T02:49:28;100123.94;;;11.67;nan
62800;BME280;48842;51.046;13.796;2023-04-22T02:51:53;100121.31;;;11.67;nan
62800;BME280;48842;51.046;13.796;2023-04-22T02:54:19;100122.19;;;11.67;nan
62800;BME280;48842;51.046;13.796;2023-04-22T02:56:44;100123.94;;;11.68;nan
62800;BME280;48842;51.046;13.796;2023-04-22T02:59:10;100130.03;;;11.70;nan
62800;BME280;48842;51.046;13.796;2023-04-22T03:01:35;100121.31;;;11.70;nan
62800;BME280;48842;51.046;13.796;2023-04-22T03:04:00;100126.56;;;11.70;nan
62800;BME280;48842;51.046;13.796;2023-04-22T03:06:25;100123.94;;;11.68;nan
62800;BME280;48842;51.046;13.796;2023-04-22T03:08:51;100114.31;;;11.66;nan
62800;BME280;48842;51.046;13.796;2023-04-22T03:11:16;100123.97;;;11.64;nan
62800;BME280;48842;51.046;13.796;2023-04-22T03:13:41;100120.47;;;11.60;nan
62800;BME280;48842;51.046;13.796;2023-04-22T03:16:06;100119.63;;;11.57;nan
62800;BME280;48842;51.046;13.796;2023-04-22T03:18:32;100117.88;;;11.52;nan
62800;BME280;48842;51.046;13.796;2023-04-22T03:20:57;100118.75;;;11.51;nan
62800;BME280;48842;51.046;13.796;2023-04-22T03:23:22;100123.13;;;11.49;nan
62800;BME280;48842;51.046;13.796;2023-04-22T03:25:47;100117.00;;;11.46;nan
62800;BME280;48842;51.046;13.796;2023-04-22T03:28:13;100115.28;;;11.45;nan
62800;BME280;48842;51.046;13.796;2023-04-22T03:30:38;100116.16;;;11.42;nan
62800;BME280;48842;51.046;13.796;2023-04-22T03:33:03;100113.56;;;11.41;nan
62800;BME280;48842;51.046;13.796;2023-04-22T03:35:29;100106.56;;;11.37;nan
62800;BME280;48842;51.046;13.796;2023-04-22T03:37:54;100111.81;;;11.33;nan
62800;BME280;48842;51.046;13.796;2023-04-22T03:40:20;100109.22;;;11.29;nan
62800;BME280;48842;51.046;13.796;2023-04-22T03:42:45;100109.22;;;11.27;nan
62800;BME280;48842;51.046;13.796;2023-04-22T03:45:10;100099.63;;;11.23;nan
62800;BME280;48842;51.046;13.796;2023-04-22T03:47:35;100102.25;;;11.20;nan
62800;BME280;48842;51.046;13.796;2023-04-22T03:50:01;100102.22;;;11.15;nan
62800;BME280;48842;51.046;13.796;2023-04-22T03:52:26;100101.38;;;11.13;nan
62800;BME280;48842;51.046;13.796;2023-04-22T03:54:51;100104.00;;;11.13;nan
62800;BME280;48842;51.046;13.796;2023-04-22T03:57:16;100103.13;;;11.13;nan
62800;BME280;48842;51.046;13.796;2023-04-22T03:59:41;100104.88;;;11.11;nan
62800;BME280;48842;51.046;13.796;2023-04-22T04:02:07;100103.16;;;11.10;nan
62800;BME280;48842;51.046;13.796;2023-04-22T04:04:32;100104.00;;;11.09;nan
62800;BME280;48842;51.046;13.796;2023-04-22T04:06:58;100103.13;;;11.07;nan
62800;BME280;48842;51.046;13.796;2023-04-22T04:09:24;100105.75;;;11.07;nan
62800;BME280;48842;51.046;13.796;2023-04-22T04:11:49;100111.03;;;11.08;nan
62800;BME280;48842;51.046;13.796;2023-04-22T04:14:14;100113.63;;;11.10;nan
62800;BME280;48842;51.046;13.796;2023-04-22T04:16:39;100110.09;;;11.14;nan
62800;BME280;48842;51.046;13.796;2023-04-22T04:19:05;100108.38;;;11.19;nan
62800;BME280;48842;51.046;13.796;2023-04-22T04:21:30;100109.22;;;11.23;nan
62800;BME280;48842;51.046;13.796;2023-04-22T04:23:57;100103.97;;;11.23;nan
62800;BME280;48842;51.046;13.796;2023-04-22T04:26:23;100115.38;;;11.20;nan
62800;BME280;48842;51.046;13.796;2023-04-22T04:28:49;100097.88;;;11.16;nan
62800;BME280;48842;51.046;13.796;2023-04-22T04:31:14;100103.13;;;11.13;nan
62800;BME280;48842;51.046;13.796;2023-04-22T04:33:39;100104.88;;;11.11;nan
62800;BME280;48842;51.046;13.796;2023-04-22T04:36:05;100100.53;;;11.08;nan
62800;BME280;48842;51.046;13.796;2023-04-22T04:38:32;100109.25;;;11.09;nan
62800;BME280;48842;51.046;13.796;2023-04-22T04:40:58;100110.13;;;11.08;nan
62800;BME280;48842;51.046;13.796;2023-04-22T04:43:23;100108.38;;;11.07;nan
62800;BME280;48842;51.046;13.796;2023-04-22T04:45:50;100105.78;;;11.08;nan
62800;BME280;48842;51.046;13.796;2023-04-22T04:48:16;100106.63;;;11.09;nan
62800;BME280;48842;51.046;13.796;2023-04-22T04:50:41;100108.38;;;11.07;nan
62800;BME280;48842;51.046;13.796;2023-04-22T04:53:11;100102.25;;;11.08;nan
62800;BME280;48842;51.046;13.796;2023-04-22T04:55:36;100113.63;;;11.10;nan
62800;BME280;48842;51.046;13.796;2023-04-22T04:58:02;100099.63;;;11.11;nan
62800;BME280;48842;51.046;13.796;2023-04-22T05:00:28;100094.38;;;11.14;nan
62800;BME280;48842;51.046;13.796;2023-04-22T05:02:53;100097.00;;;11.15;nan
62800;BME280;48842;51.046;13.796;2023-04-22T05:05:18;100102.25;;;11.20;nan
62800;BME280;48842;51.046;13.796;2023-04-22T05:07:43;100100.47;;;11.24;nan
62800;BME280;48842;51.046;13.796;2023-04-22T05:10:09;100109.22;;;11.30;nan
62800;BME280;48842;51.046;13.796;2023-04-22T05:12:34;100111.81;;;11.35;nan
62800;BME280;48842;51.046;13.796;2023-04-22T05:15:00;100109.19;;;11.40;nan
62800;BME280;48842;51.046;13.796;2023-04-22T05:17:25;100126.66;;;11.45;nan
62800;BME280;48842;51.046;13.796;2023-04-22T05:19:51;100110.03;;;11.51;nan
62800;BME280;48842;51.046;13.796;2023-04-22T05:22:16;100115.25;;;11.56;nan
62800;BME280;48842;51.046;13.796;2023-04-22T05:24:42;100111.72;;;11.63;nan
62800;BME280;48842;51.046;13.796;2023-04-22T05:27:07;100104.69;;;11.69;nan
62800;BME280;48842;51.046;13.796;2023-04-22T05:29:33;100116.03;;;11.78;nan
62800;BME280;48842;51.046;13.796;2023-04-22T05:31:58;100110.72;;;11.85;nan
62800;BME280;48842;51.046;13.796;2023-04-22T05:34:24;100115.06;;;11.91;nan
62800;BME280;48842;51.046;13.796;2023-04-22T05:36:49;100118.59;;;11.98;nan
62800;BME280;48842;51.046;13.796;2023-04-22T05:39:14;100107.16;;;12.05;nan
62800;BME280;48842;51.046;13.796;2023-04-22T05:41:39;100108.00;;;12.12;nan
62800;BME280;48842;51.046;13.796;2023-04-22T05:44:05;100111.44;;;12.20;nan
62800;BME280;48842;51.046;13.796;2023-04-22T05:46:30;100107.03;;;12.28;nan
62800;BME280;48842;51.046;13.796;2023-04-22T05:48:55;100114.84;;;12.36;nan
62800;BME280;48842;51.046;13.796;2023-04-22T05:51:21;100108.63;;;12.46;nan
62800;BME280;48842;51.046;13.796;2023-04-22T05:53:47;100104.19;;;12.56;nan
62800;BME280;48842;51.046;13.796;2023-04-22T05:56:13;100103.22;;;12.68;nan
62800;BME280;48842;51.046;13.796;2023-04-22T05:58:39;100107.53;;;12.77;nan
62800;BME280;48842;51.046;13.796;2023-04-22T06:01:04;100094.25;;;12.87;nan
62800;BME280;48842;51.046;13.796;2023-04-22T06:03:31;100097.66;;;12.99;nan
62800;BME280;48842;51.046;13.796;2023-04-22T06:05:56;100090.56;;;13.10;nan
62800;BME280;48842;51.046;13.796;2023-04-22T06:08:21;100101.81;;;13.20;nan
62800;BME280;48842;51.046;13.796;2023-04-22T06:10:46;100105.19;;;13.33;nan
62800;BME280;48842;51.046;13.796;2023-04-22T06:13:12;100099.84;;;13.45;nan
62800;BME280;48842;51.046;13.796;2023-04-22T06:15:37;100097.94;;;13.56;nan
62800;BME280;48842;51.046;13.796;2023-04-22T06:18:02;100097.78;;;13.70;nan
62800;BME280;48842;51.046;13.796;2023-04-22T06:20:28;100102.00;;;13.82;nan
62800;BME280;48842;51.046;13.796;2023-04-22T06:22:53;100105.38;;;13.93;nan
62800;BME280;48842;51.046;13.796;2023-04-22T06:25:18;100104.31;;;14.05;nan
62800;BME280;48842;51.046;13.796;2023-04-22T06:27:43;100104.13;;;14.18;nan
62800;BME280;48842;51.046;13.796;2023-04-22T06:30:09;100091.66;;;14.29;nan
62800;BME280;48842;51.046;13.796;2023-04-22T06:32:36;100094.16;;;14.40;nan
62800;BME280;48842;51.046;13.796;2023-04-22T06:35:01;100097.50;;;14.49;nan
62800;BME280;48842;51.046;13.796;2023-04-22T06:37:26;100090.28;;;14.61;nan
62800;BME280;48842;51.046;13.796;2023-04-22T06:39:51;100092.78;;;14.70;nan
62800;BME280;48842;51.046;13.796;2023-04-22T06:42:17;100083.03;;;14.77;nan
62800;BME280;48842;51.046;13.796;2023-04-22T06:44:42;100084.63;;;14.86;nan
62800;BME280;48842;51.046;13.796;2023-04-22T06:47:07;100087.09;;;14.95;nan
62800;BME280;48842;51.046;13.796;2023-04-22T06:49:32;100090.47;;;15.03;nan
62800;BME280;48842;51.046;13.796;2023-04-22T06:51:59;100081.50;;;15.12;nan
62800;BME280;48842;51.046;13.796;2023-04-22T06:54:24;100096.31;;;15.19;nan
62800;BME280;48842;51.046;13.796;2023-04-22T06:56:50;100097.03;;;15.29;nan
62800;BME280;48842;51.046;13.796;2023-04-22T06:59:15;100101.25;;;15.38;nan
62800;BME280;48842;51.046;13.796;2023-04-22T07:01:40;100100.22;;;15.46;nan
62800;BME280;48842;51.046;13.796;2023-04-22T07:04:06;100097.41;;;15.54;nan
62800;BME280;48842;51.046;13.796;2023-04-22T07:06:31;100099.88;;;15.62;nan
62800;BME280;48842;51.046;13.796;2023-04-22T07:08:57;100097.09;;;15.68;nan
62800;BME280;48842;51.046;13.796;2023-04-22T07:11:25;100094.34;;;15.74;nan
62800;BME280;48842;51.046;13.796;2023-04-22T07:13:51;100091.56;;;15.82;nan
62800;BME280;48842;51.046;13.796;2023-04-22T07:16:16;100095.78;;;15.91;nan
62800;BME280;48842;51.046;13.796;2023-04-22T07:18:42;100089.50;;;15.96;nan
62800;BME280;48842;51.046;13.796;2023-04-22T07:21:07;100093.78;;;16.02;nan
62800;BME280;48842;51.046;13.796;2023-04-22T07:23:32;100087.47;;;16.08;nan
62800;BME280;48842;51.046;13.796;2023-04-22T07:25:58;100086.38;;;16.16;nan
62800;BME280;48842;51.046;13.796;2023-04-22T07:28:23;100086.25;;;16.22;nan
62800;BME280;48842;51.046;13.796;2023-04-22T07:30:48;100079.00;;;16.31;nan
62800;BME280;48842;51.046;13.796;2023-04-22T07:33:14;100069.94;;;16.41;nan
62800;BME280;48842;51.046;13.796;2023-04-22T07:35:39;100079.44;;;16.48;nan
62800;BME280;48842;51.046;13.796;2023-04-22T07:38:04;100076.63;;;16.56;nan
62800;BME280;48842;51.046;13.796;2023-04-22T07:40:30;100072.03;;;16.63;nan
62800;BME280;48842;51.046;13.796;2023-04-22T07:42:55;100073.66;;;16.68;nan
62800;BME280;48842;51.046;13.796;2023-04-22T07:45:20;100074.44;;;16.73;nan
62800;BME280;48842;51.046;13.796;2023-04-22T07:47:45;100076.91;;;16.80;nan
62800;BME280;48842;51.046;13.796;2023-04-22T07:50:11;100068.00;;;16.84;nan
62800;BME280;48842;51.046;13.796;2023-04-22T07:52:36;100068.72;;;16.90;nan
62800;BME280;48842;51.046;13.796;2023-04-22T07:55:01;100076.47;;;16.98;nan
62800;BME280;48842;51.046;13.796;2023-04-22T07:57:27;100066.56;;;17.05;nan
62800;BME280;48842;51.046;13.796;2023-04-22T07:59:52;100061.09;;;17.11;nan
62800;BME280;48842;51.046;13.796;2023-04-22T08:02:17;100057.47;;;17.15;nan
62800;BME280;48842;51.046;13.796;2023-04-22T08:04:42;100064.31;;;17.22;nan
62800;BME280;48842;51.046;13.796;2023-04-22T08:07:08;100055.38;;;17.26;nan
62800;BME280;48842;51.046;13.796;2023-04-22T08:09:33;100054.41;;;17.31;nan
62800;BME280;48842;51.046;13.796;2023-04-22T08:11:59;100055.13;;;17.36;nan
62800;BME280;48842;51.046;13.796;2023-04-22T08:14:25;100053.22;;;17.41;nan
62800;BME280;48842;51.046;13.796;2023-04-22T08:16:51;100052.19;;;17.47;nan
62800;BME280;48842;51.046;13.796;2023-04-22T08:19:17;100052.09;;;17.50;nan
62800;BME280;48842;51.046;13.796;2023-04-22T08:21:42;100059.78;;;17.57;nan
62800;BME280;48842;51.046;13.796;2023-04-22T08:24:08;100052.53;;;17.64;nan
62800;BME280;48842;51.046;13.796;2023-04-22T08:26:35;100054.22;;;17.67;nan
62800;BME280;48842;51.046;13.796;2023-04-22T08:29:00;100055.75;;;17.74;nan
62800;BME280;48842;51.046;13.796;2023-04-22T08:31:25;100052.00;;;17.81;nan
62800;BME280;48842;51.046;13.796;2023-04-22T08:33:50;100057.16;;;17.87;nan
62800;BME280;48842;51.046;13.796;2023-04-22T08:36:16;100055.25;;;17.92;nan
62800;BME280;48842;51.046;13.796;2023-04-22T08:38:41;100047.13;;;17.97;nan
62800;BME280;48842;51.046;13.796;2023-04-22T08:41:07;100049.63;;;18.02;nan
62800;BME280;48842;51.046;13.796;2023-04-22T08:43:32;100044.28;;;18.03;nan
62800;BME280;48842;51.046;13.796;2023-04-22T08:45:58;100057.28;;;18.12;nan
62800;BME280;48842;51.046;13.796;2023-04-22T08:48:24;100049.13;;;18.19;nan
62800;BME280;48842;51.046;13.796;2023-04-22T08:50:50;100044.53;;;18.24;nan
62800;BME280;48842;51.046;13.796;2023-04-22T08:53:15;100047.91;;;18.29;nan
62800;BME280;48842;51.046;13.796;2023-04-22T08:55:43;100049.44;;;18.36;nan
62800;BME280;48842;51.046;13.796;2023-04-22T08:58:09;100044.81;;;18.43;nan
62800;BME280;48842;51.046;13.796;2023-04-22T09:00:37;100037.53;;;18.48;nan
62800;BME280;48842;51.046;13.796;2023-04-22T09:03:04;100041.72;;;18.55;nan
62800;BME280;48842;51.046;13.796;2023-04-22T09:05:32;100038.84;;;18.61;nan
62800;BME280;48842;51.046;13.796;2023-04-22T09:07:58;100036.94;;;18.66;nan
62800;BME280;48842;51.046;13.796;2023-04-22T09:10:24;100039.34;;;18.73;nan
62800;BME280;48842;51.046;13.796;2023-04-22T09:12:50;100032.16;;;18.76;nan
62800;BME280;48842;51.046;13.796;2023-04-22T09:15:15;100037.25;;;18.82;nan
62800;BME280;48842;51.046;13.796;2023-04-22T09:17:41;100028.25;;;18.88;nan
62800;BME280;48842;51.046;13.796;2023-04-22T09:20:07;100020.19;;;18.91;nan
62800;BME280;48842;51.046;13.796;2023-04-22T09:22:39;100020.81;;;18.98;nan
62800;BME280;48842;51.046;13.796;2023-04-22T09:25:06;100015.13;;;19.09;nan
62800;BME280;48842;51.046;13.796;2023-04-22T09:27:34;100017.53;;;19.15;nan
62800;BME280;48842;51.046;13.796;2023-04-22T09:29:59;100012.88;;;19.22;nan
62800;BME280;48842;51.046;13.796;2023-04-22T09:32:24;100016.16;;;19.28;nan
62800;BME280;48842;51.046;13.796;2023-04-22T09:34:51;100008.06;;;19.31;nan
62800;BME280;48842;51.046;13.796;2023-04-22T09:37:18;100001.72;;;19.35;nan
62800;BME280;48842;51.046;13.796;2023-04-22T09:39:47;99994.47;;;19.41;nan
62800;BME280;48842;51.046;13.796;2023-04-22T09:42:12;100003.94;;;19.48;nan
62800;BME280;48842;51.046;13.796;2023-04-22T09:44:40;100002.81;;;19.53;nan
62800;BME280;48842;51.046;13.796;2023-04-22T09:47:08;99984.97;;;19.57;nan
62800;BME280;48842;51.046;13.796;2023-04-22T09:49:36;99985.69;;;19.61;nan
62800;BME280;48842;51.046;13.796;2023-04-22T09:52:02;99987.31;;;19.65;nan
62800;BME280;48842;51.046;13.796;2023-04-22T09:54:28;99987.94;;;19.71;nan
62800;BME280;48842;51.046;13.796;2023-04-22T09:56:53;99983.34;;;19.75;nan
62800;BME280;48842;51.046;13.796;2023-04-22T09:59:24;99975.28;;;19.78;nan
62800;BME280;48842;51.046;13.796;2023-04-22T10:01:51;99975.94;;;19.85;nan
62800;BME280;48842;51.046;13.796;2023-04-22T10:04:17;99968.66;;;19.88;nan
62800;BME280;48842;51.046;13.796;2023-04-22T10:06:45;99983.50;;;19.94;nan
62800;BME280;48842;51.046;13.796;2023-04-22T10:09:11;99969.97;;;20.00;nan
62800;BME280;48842;51.046;13.796;2023-04-22T10:11:37;99964.41;;;20.07;nan
62800;BME280;48842;51.046;13.796;2023-04-22T10:14:02;99962.47;;;20.10;nan
62800;BME280;48842;51.046;13.796;2023-04-22T10:16:30;99959.69;;;20.13;nan
62800;BME280;48842;51.046;13.796;2023-04-22T10:18:57;99953.38;;;20.16;nan
62800;BME280;48842;51.046;13.796;2023-04-22T10:21:24;99961.22;;;20.19;nan
62800;BME280;48842;51.046;13.796;2023-04-22T10:23:50;99960.25;;;20.21;nan
62800;BME280;48842;51.046;13.796;2023-04-22T10:26:39;99963.56;;;20.27;nan
62800;BME280;48842;51.046;13.796;2023-04-22T10:29:06;99958.97;;;20.30;nan
62800;BME280;48842;51.046;13.796;2023-04-22T10:31:31;99957.88;;;20.36;nan
62800;BME280;48842;51.046;13.796;2023-04-22T10:34:13;99956.00;;;20.38;nan
62800;BME280;48842;51.046;13.796;2023-04-22T10:36:55;99954.78;;;20.45;nan
62800;BME280;48842;51.046;13.796;2023-04-22T10:39:22;99949.34;;;20.48;nan
62800;BME280;48842;51.046;13.796;2023-04-22T10:44:48;99947.34;;;20.53;nan
62800;BME280;48842;51.046;13.796;2023-04-22T10:47:33;99949.81;;;20.58;nan
62800;BME280;48842;51.046;13.796;2023-04-22T10:52:37;99947.72;;;20.66;nan
62800;BME280;48842;51.046;13.796;2023-04-22T10:55:02;99957.44;;;20.66;nan
62800;BME280;48842;51.046;13.796;2023-04-22T10:57:30;99950.16;;;20.71;nan
62800;BME280;48842;51.046;13.796;2023-04-22T11:00:26;99943.03;;;20.71;nan
62800;BME280;48842;51.046;13.796;2023-04-22T11:03:06;99946.38;;;20.77;nan
62800;BME280;48842;51.046;13.796;2023-04-22T11:05:32;99935.44;;;20.83;nan
62800;BME280;48842;51.046;13.796;2023-04-22T11:08:05;99936.06;;;20.88;nan
62800;BME280;48842;51.046;13.796;2023-04-22T11:10:49;99936.91;;;20.90;nan
62800;BME280;48842;51.046;13.796;2023-04-22T11:13:20;99941.16;;;20.94;nan
62800;BME280;48842;51.046;13.796;2023-04-22T11:15:47;99942.72;;;20.98;nan
62800;BME280;48842;51.046;13.796;2023-04-22T11:18:25;99935.53;;;21.00;nan
62800;BME280;48842;51.046;13.796;2023-04-22T11:20:52;99938.97;;;21.02;nan
62800;BME280;48842;51.046;13.796;2023-04-22T11:23:26;99936.16;;;21.05;nan
62800;BME280;48842;51.046;13.796;2023-04-22T11:26:03;99937.69;;;21.11;nan
62800;BME280;48842;51.046;13.796;2023-04-22T11:28:29;99933.09;;;21.15;nan
62800;BME280;48842;51.046;13.796;2023-04-22T11:31:05;99932.03;;;21.19;nan
62800;BME280;48842;51.046;13.796;2023-04-22T11:33:32;99928.91;;;21.28;nan
62800;BME280;48842;51.046;13.796;2023-04-22T11:35:57;99926.19;;;21.30;nan
62800;BME280;48842;51.046;13.796;2023-04-22T11:38:22;99918.97;;;21.32;nan
62800;BME280;48842;51.046;13.796;2023-04-22T11:40:48;99927.69;;;21.35;nan
62800;BME280;48842;51.046;13.796;2023-04-22T11:43:13;99918.78;;;21.36;nan
62800;BME280;48842;51.046;13.796;2023-04-22T11:45:38;99922.22;;;21.38;nan
62800;BME280;48842;51.046;13.796;2023-04-22T11:48:06;99915.81;;;21.42;nan
62800;BME280;48842;51.046;13.796;2023-04-22T11:50:34;99909.41;;;21.47;nan
62800;BME280;48842;51.046;13.796;2023-04-22T11:53:02;99913.53;;;21.54;nan
62800;BME280;48842;51.046;13.796;2023-04-22T11:55:33;99908.97;;;21.56;nan
62800;BME280;48842;51.046;13.796;2023-04-22T11:58:07;99909.47;;;21.64;nan
62800;BME280;48842;51.046;13.796;2023-04-22T12:00:35;99911.59;;;21.75;nan
62800;BME280;48842;51.046;13.796;2023-04-22T12:03:16;99907.91;;;21.77;nan
62800;BME280;48842;51.046;13.796;2023-04-22T12:08:19;99906.38;;;21.91;nan
62800;BME280;48842;51.046;13.796;2023-04-22T12:10:45;99910.78;;;21.92;nan
62800;BME280;48842;51.046;13.796;2023-04-22T12:13:22;99903.47;;;21.95;nan
62800;BME280;48842;51.046;13.796;2023-04-22T12:15:51;99910.28;;;22.01;nan
62800;BME280;48842;51.046;13.796;2023-04-22T12:18:27;99898.69;;;22.02;nan
62800;BME280;48842;51.046;13.796;2023-04-22T12:20:53;99906.63;;;22.04;nan
62800;BME280;48842;51.046;13.796;2023-04-22T12:23:19;99891.31;;;22.07;nan
62800;BME280;48842;51.046;13.796;2023-04-22T12:25:45;99888.38;;;22.12;nan
62800;BME280;48842;51.046;13.796;2023-04-22T12:28:10;99892.56;;;22.18;nan
62800;BME280;48842;51.046;13.796;2023-04-22T12:30:36;99883.44;;;22.22;nan
62800;BME280;48842;51.046;13.796;2023-04-22T12:33:01;99884.09;;;22.27;nan
62800;BME280;48842;51.046;13.796;2023-04-22T12:35:26;99889.13;;;22.33;nan
62800;BME280;48842;51.046;13.796;2023-04-22T12:37:51;99882.53;;;22.40;nan
62800;BME280;48842;51.046;13.796;2023-04-22T12:40:17;99878.59;;;22.47;nan
62800;BME280;48842;51.046;13.796;2023-04-22T12:42:42;99878.00;;;22.58;nan
62800;BME280;48842;51.046;13.796;2023-04-22T12:45:08;99871.78;;;22.75;nan
62800;BME280;48842;51.046;13.796;2023-04-22T12:47:33;99866.19;;;22.96;nan
62800;BME280;48842;51.046;13.796;2023-04-22T12:49:58;99869.31;;;23.20;nan
62800;BME280;48842;51.046;13.796;2023-04-22T12:52:25;99864.25;;;23.31;nan
62800;BME280;48842;51.046;13.796;2023-04-22T12:54:50;99870.78;;;23.26;nan
62800;BME280;48842;51.046;13.796;2023-04-22T12:57:16;99862.84;;;23.40;nan
62800;BME280;48842;51.046;13.796;2023-04-22T12:59:41;99859.94;;;23.75;nan
62800;BME280;48842;51.046;13.796;2023-04-22T13:02:07;99856.63;;;24.16;nan
62800;BME280;48842;51.046;13.796;2023-04-22T13:04:32;99851.53;;;24.56;nan
62800;BME280;48842;51.046;13.796;2023-04-22T13:06:57;99846.53;;;24.94;nan